createdAt,value
2023-10-23T00:00:14.054Z,99637.13
2023-10-23T00:05:36.985Z,99612.72
2023-10-23T00:10:59.389Z,99615.84
2023-10-23T00:16:22.459Z,99611.09
2023-10-23T00:21:46.377Z,99624.94
2023-10-23T00:27:08.664Z,99619.31
2023-10-23T00:32:31.161Z,99599.38
2023-10-23T00:37:54.024Z,99614.81
2023-10-23T00:43:22.289Z,99606.63
2023-10-23T00:48:48.659Z,99589.34
2023-10-23T00:54:11.183Z,99569.16
2023-10-23T00:59:33.762Z,99547.97
2023-10-23T01:04:58.705Z,99541.78
2023-10-23T01:10:21.053Z,99535.19
2023-10-23T01:15:43.581Z,99528.06
2023-10-23T01:21:05.946Z,99514.56
2023-10-23T01:26:28.351Z,99480.72
2023-10-23T01:31:52.868Z,99483.34
2023-10-23T01:37:17.216Z,99468.47
2023-10-23T01:42:39.752Z,99472.50
2023-10-23T01:48:02.333Z,99451.44
2023-10-23T01:53:24.928Z,99429.44
2023-10-23T01:58:47.637Z,99426.47
2023-10-23T02:04:10.403Z,99408.88
2023-10-23T02:09:33.961Z,99384.44
2023-10-23T02:14:56.816Z,99366.38
2023-10-23T02:20:18.893Z,99358.31
2023-10-23T02:40:55.836Z,99329.22
2023-10-23T02:47:14.913Z,99302.03
2023-10-23T02:53:13.352Z,99357.44
2023-10-23T02:58:37.495Z,99358.72
2023-10-23T03:04:00.083Z,99360.72
2023-10-23T03:09:25.179Z,99344.16
2023-10-23T03:14:47.613Z,99318.13
2023-10-23T03:20:10.769Z,99300.88
2023-10-23T03:25:33.195Z,99284.19
2023-10-23T03:30:55.309Z,99262.88
2023-10-23T03:36:17.962Z,99253.44
2023-10-23T03:41:44.198Z,99243.34
2023-10-23T03:47:09.656Z,99246.84
2023-10-23T03:52:32.623Z,99257.44
2023-10-23T03:57:55.125Z,99256.75
2023-10-23T04:03:17.429Z,99254.31
2023-10-23T04:08:40.420Z,99245.91
2023-10-23T04:14:02.711Z,99244.69
2023-10-23T04:19:24.870Z,99228.16
2023-10-23T04:24:49.039Z,99232.91
2023-10-23T04:30:12.920Z,99231.94
2023-10-23T04:35:35.650Z,99217.16
2023-10-23T04:40:57.945Z,99217.72
2023-10-23T04:46:20.214Z,99209.53
2023-10-23T04:51:42.170Z,99201.44
2023-10-23T04:57:04.909Z,99208.81
2023-10-23T05:02:27.840Z,99184.16
2023-10-23T05:07:50.954Z,99188.50
2023-10-23T05:13:13.440Z,99200.31
2023-10-23T05:18:36.623Z,99203.75
2023-10-23T05:24:01.563Z,99195.06
2023-10-23T05:29:23.457Z,99192.91
2023-10-23T05:34:47.626Z,99190.81
2023-10-23T05:40:09.917Z,99181.75
2023-10-23T05:45:31.837Z,99176.84
2023-10-23T05:51:01.477Z,99168.22
2023-10-23T05:56:23.028Z,99163.50
2023-10-23T06:01:45.266Z,99158.19
2023-10-23T06:07:07.763Z,99136.91
2023-10-23T06:12:31.652Z,99134.91
2023-10-23T06:17:53.988Z,99124.75
2023-10-23T06:23:16.516Z,99115.69
2023-10-23T06:28:39.985Z,99103.53
2023-10-23T06:34:02.222Z,99112.84
2023-10-23T06:39:24.209Z,99110.56
2023-10-23T06:44:46.010Z,99090.50
2023-10-23T06:50:09.173Z,99080.34
2023-10-23T06:55:31.333Z,99085.97
2023-10-23T07:00:55.911Z,99076.34
2023-10-23T07:06:20.712Z,99078.31
2023-10-23T07:11:45.755Z,99062.25
2023-10-23T07:18:09.399Z,99053.78
2023-10-23T07:23:34.610Z,99030.81
2023-10-23T07:28:57.191Z,99030.38
2023-10-23T07:34:19.562Z,99021.81
2023-10-23T07:39:49.989Z,99016.22
2023-10-23T07:45:12.466Z,99009.28
2023-10-23T07:50:43.956Z,99005.22
2023-10-23T07:56:19.046Z,98993.69
2023-10-23T08:01:56.343Z,98981.88
2023-10-23T08:07:24.279Z,98973.69
2023-10-23T08:12:48.139Z,98970.44
2023-10-23T08:18:18.872Z,98973.91
2023-10-23T08:23:48.441Z,98960.41
2023-10-23T08:29:10.367Z,98961.00
2023-10-23T08:34:32.496Z,98956.16
2023-10-23T08:39:54.712Z,98952.53
2023-10-23T08:45:19.746Z,98937.06
2023-10-23T08:50:44.982Z,98930.19
2023-10-23T08:56:08.552Z,98921.28
2023-10-23T09:01:31.207Z,98909.69
2023-10-23T09:06:56.944Z,98910.47
2023-10-23T09:12:36.280Z,98901.00
2023-10-23T09:18:00.663Z,98909.94
2023-10-23T09:23:22.915Z,98910.19
2023-10-23T09:28:44.939Z,98899.13
2023-10-23T09:34:07.117Z,98908.59
2023-10-23T09:39:29.157Z,98882.78
2023-10-23T09:44:52.260Z,98891.41
2023-10-23T09:50:14.341Z,98884.81
2023-10-23T09:55:37.899Z,98880.88
2023-10-23T10:01:06.406Z,98877.47
2023-10-23T10:06:29.755Z,98876.63
2023-10-23T10:11:52.081Z,98857.63
2023-10-23T10:17:16.669Z,98837.09
2023-10-23T10:22:42.044Z,98845.03
2023-10-23T10:28:06.638Z,98848.50
2023-10-23T10:34:22.130Z,98847.22
2023-10-23T10:39:13.703Z,98840.69
2023-10-23T10:45:02.426Z,98840.66
2023-10-23T10:50:42.132Z,98837.00
2023-10-23T10:56:09.793Z,98820.00
2023-10-23T11:01:32.769Z,98805.84
2023-10-23T11:06:54.956Z,98805.09
2023-10-23T11:12:18.550Z,98795.53
2023-10-23T11:17:40.925Z,98786.03
2023-10-23T11:23:03.189Z,98790.78
2023-10-23T11:28:26.610Z,98785.94
2023-10-23T11:33:53.617Z,98783.88
2023-10-23T11:39:23.855Z,98782.31
2023-10-23T11:44:48.871Z,98783.00
2023-10-23T11:50:12.725Z,98763.13
2023-10-23T11:55:38.535Z,98759.13
2023-10-23T12:01:01.601Z,98747.25
2023-10-23T12:06:24.061Z,98744.28
2023-10-23T12:11:46.435Z,98733.97
2023-10-23T12:17:08.408Z,98734.75
2023-10-23T12:22:30.581Z,98730.22
2023-10-23T12:27:52.875Z,98720.69
2023-10-23T12:33:22.646Z,98720.09
2023-10-23T12:38:48.413Z,98724.94
2023-10-23T12:44:10.716Z,98724.88
2023-10-23T12:49:32.810Z,98700.78
2023-10-23T12:54:59.163Z,98696.22
2023-10-23T13:00:24.854Z,98694.59
2023-10-23T13:05:47.227Z,98694.09
2023-10-23T13:11:09.510Z,98682.16
2023-10-23T13:16:31.842Z,98677.91
2023-10-23T13:21:54.468Z,98671.06
2023-10-23T13:27:20.165Z,98687.13
2023-10-23T13:32:42.947Z,98686.69
2023-10-23T13:38:14.466Z,98681.41
2023-10-23T13:43:41.628Z,98685.59
2023-10-23T13:49:04.623Z,98682.38
2023-10-23T13:54:26.849Z,98669.91
2023-10-23T13:59:49.585Z,98674.13
2023-10-23T14:05:15.580Z,98668.03
2023-10-23T14:10:39.442Z,98668.56
2023-10-23T14:16:02.759Z,98663.84
2023-10-23T14:21:25.624Z,98663.72
2023-10-23T14:26:48.754Z,98657.44
2023-10-23T14:32:11.349Z,98666.41
2023-10-23T14:37:33.281Z,98665.31
2023-10-23T14:42:56.564Z,98662.41
2023-10-23T14:48:20.410Z,98670.66
2023-10-23T14:53:42.385Z,98663.22
2023-10-23T14:59:05.225Z,98661.09
2023-10-23T15:04:27.846Z,98672.78
2023-10-23T15:09:49.992Z,98672.84
2023-10-23T15:15:12.648Z,98672.19
2023-10-23T15:20:34.732Z,98674.06
2023-10-23T15:25:57.273Z,98660.78
2023-10-23T15:31:19.328Z,98665.38
2023-10-23T15:36:45.182Z,98663.53
2023-10-23T15:42:07.210Z,98660.56
2023-10-23T15:47:29.550Z,98652.78
2023-10-23T15:52:53.800Z,98660.50
2023-10-23T15:58:16.091Z,98661.59
2023-10-23T16:03:38.754Z,98646.97
2023-10-23T16:09:09.253Z,98640.63
2023-10-23T16:14:55.720Z,98646.75
2023-10-23T16:20:20.407Z,98637.72
2023-10-23T16:25:44.205Z,98627.25
2023-10-23T16:31:06.382Z,98638.75
2023-10-23T16:36:29.233Z,98644.09
2023-10-23T16:41:51.235Z,98639.09
2023-10-23T16:47:14.967Z,98635.31
2023-10-23T16:52:40.114Z,98640.94
2023-10-23T16:58:02.800Z,98634.47
2023-10-23T17:03:26.761Z,98639.31
2023-10-23T17:08:48.945Z,98623.03
2023-10-23T17:14:11.133Z,98621.13
2023-10-23T17:19:33.643Z,98612.38
2023-10-23T17:24:55.830Z,98616.94
2023-10-23T17:30:19.005Z,98618.75
2023-10-23T17:35:41.547Z,98608.44
2023-10-23T17:41:04.300Z,98610.03
2023-10-23T17:46:26.592Z,98619.28
2023-10-23T17:51:49.191Z,98627.09
2023-10-23T17:57:11.812Z,98616.44
2023-10-23T18:02:34.383Z,98614.75
2023-10-23T18:08:02.958Z,98618.97
2023-10-23T18:13:27.998Z,98628.78
2023-10-23T18:18:50.398Z,98629.53
2023-10-23T18:24:14.067Z,98632.50
2023-10-23T18:29:36.447Z,98640.97
2023-10-23T18:34:59.298Z,98640.44
2023-10-23T18:40:22.105Z,98647.13
2023-10-23T18:45:45.547Z,98649.25
2023-10-23T18:51:10.205Z,98647.06
2023-10-23T18:56:34.869Z,98648.19
2023-10-23T19:01:57.200Z,98649.13
2023-10-23T19:07:21.198Z,98642.31
2023-10-23T19:12:43.183Z,98640.84
2023-10-23T19:18:05.333Z,98637.91
2023-10-23T19:23:27.543Z,98634.31
2023-10-23T19:28:50.993Z,98633.81
2023-10-23T19:34:13.173Z,98645.97
2023-10-23T19:39:38.518Z,98639.88
2023-10-23T19:45:02.070Z,98639.66
2023-10-23T19:50:25.884Z,98646.50
2023-10-23T19:55:50.254Z,98644.22
2023-10-23T20:01:14.628Z,98642.59
2023-10-23T20:06:37.678Z,98646.03
2023-10-23T20:11:59.756Z,98632.38
2023-10-23T20:17:21.920Z,98629.97
2023-10-23T20:22:45.192Z,98642.81
2023-10-23T20:28:07.026Z,98637.13
2023-10-23T20:33:28.999Z,98640.69
2023-10-23T20:38:51.170Z,98644.03
2023-10-23T20:44:13.389Z,98636.41
2023-10-23T20:49:35.139Z,98650.47
2023-10-23T20:54:57.654Z,98646.75
2023-10-23T21:00:20.152Z,98648.06
2023-10-23T21:05:42.294Z,98639.38
2023-10-23T21:11:05.794Z,98658.16
2023-10-23T21:16:31.056Z,98657.59
2023-10-23T21:21:53.077Z,98656.06
2023-10-23T21:27:14.892Z,98678.38
2023-10-23T21:32:37.094Z,98672.41
2023-10-23T21:38:00.148Z,98680.69
2023-10-23T21:43:22.400Z,98679.84
2023-10-23T21:48:44.672Z,98682.41
2023-10-23T21:54:07.030Z,98693.88
2023-10-23T21:59:29.397Z,98704.09
2023-10-23T22:04:52.062Z,98705.84
2023-10-23T22:10:15.155Z,98702.19
2023-10-23T22:15:37.266Z,98710.47
2023-10-23T22:20:59.033Z,98717.63
2023-10-23T22:26:21.115Z,98731.16
2023-10-23T22:31:43.095Z,98730.03
2023-10-23T22:37:54.825Z,98725.59
2023-10-23T22:42:47.425Z,98737.69
2023-10-23T22:48:09.460Z,98751.34
2023-10-23T22:53:31.923Z,98757.22
2023-10-23T22:58:54.354Z,98763.03
2023-10-23T23:04:16.625Z,98762.81
2023-10-23T23:09:41.646Z,98770.03
2023-10-23T23:15:07.325Z,98773.81
2023-10-23T23:20:40.633Z,98786.63
2023-10-23T23:26:02.786Z,98786.34
2023-10-23T23:31:24.476Z,98782.91
2023-10-23T23:36:46.563Z,98794.31
2023-10-23T23:42:08.565Z,98799.53
2023-10-23T23:47:30.643Z,98808.09
2023-10-23T23:52:53.009Z,98807.06
2023-10-23T23:58:15.276Z,98818.81
